Time,TemperatureF,DewpointF,PressureIn,WindDirection,WindDirectionDegrees,WindSpeedMPH,WindSpeedGustMPH,Humidity,HourlyPrecipIn,Conditions,Clouds,dailyrainin,SoftwareType,DateUTC
2013-07-28 00:12:00,59.0,49.0,-100.00,SE,135,1.0,2.0,69,-99.99,,,-99.99,,2013-07-28 05:12:00,
2013-07-28 00:22:00,59.0,49.0,-100.00,SE,135,1.0,2.0,69,-99.99,,,-99.99,,2013-07-28 05:22:00,
2013-07-28 00:32:00,59.0,50.0,-100.00,SE,130,0.0,4.0,73,-99.99,,,-99.99,,2013-07-28 05:32:00,
2013-07-28 00:43:00,58.0,52.0,-100.00,SE,145,1.0,4.0,78,-99.99,,,-99.99,,2013-07-28 05:43:00,
2013-07-28 00:53:00,58.0,52.0,-100.00,SE,145,1.0,4.0,78,-99.99,,,-99.99,,2013-07-28 05:53:00,
2013-07-28 01:22:00,57.0,53.0,-100.00,SE,125,4.0,5.0,85,-99.99,,,-99.99,,2013-07-28 06:22:00,
2013-07-28 01:43:00,57.0,53.0,-100.00,SE,125,4.0,4.0,87,-99.99,,,-99.99,,2013-07-28 06:43:00,
2013-07-28 01:53:00,57.0,53.0,-100.00,SE,125,4.0,4.0,87,-99.99,,,-99.99,,2013-07-28 06:53:00,
2013-07-28 02:12:00,57.0,54.0,-100.00,SE,145,2.0,4.0,89,-99.99,,,-99.99,,2013-07-28 07:12:00,
2013-07-28 02:22:00,57.0,54.0,-100.00,SE,145,2.0,4.0,89,-99.99,,,-99.99,,2013-07-28 07:22:00,
2013-07-28 02:43:00,58.0,52.0,-100.00,SSE,150,2.0,4.0,81,-99.99,,,-99.99,,2013-07-28 07:43:00,
2013-07-28 02:53:00,58.0,52.0,-100.00,SSE,150,2.0,4.0,81,-99.99,,,-99.99,,2013-07-28 07:53:00,
2013-07-28 03:12:00,57.0,51.0,-100.00,SE,130,2.0,8.0,81,-99.99,,,-99.99,,2013-07-28 08:12:00,
2013-07-28 03:22:00,57.0,51.0,-100.00,SE,130,2.0,8.0,81,-99.99,,,-99.99,,2013-07-28 08:22:00,
2013-07-28 03:42:00,57.0,50.0,-100.00,SSW,200,1.0,7.0,79,-99.99,,,-99.99,,2013-07-28 08:42:00,
2013-07-28 03:53:00,57.0,50.0,-100.00,SSW,200,1.0,7.0,79,-99.99,,,-99.99,,2013-07-28 08:53:00,
2013-07-28 04:12:00,56.0,50.0,-100.00,NNW,330,2.0,7.0,80,-99.99,,,-99.99,,2013-07-28 09:12:00,
2013-07-28 04:22:00,56.0,50.0,-100.00,NNW,330,2.0,7.0,80,-99.99,,,-99.99,,2013-07-28 09:22:00,
2013-07-28 04:53:00,57.0,50.0,-100.00,ESE,120,2.0,8.0,77,-99.99,,,-99.99,,2013-07-28 09:53:00,
2013-07-28 05:12:00,58.0,49.0,-100.00,ESE,105,3.0,11.0,74,-99.99,,,-99.99,,2013-07-28 10:12:00,
2013-07-28 05:22:00,58.0,49.0,-100.00,ESE,105,3.0,11.0,74,-99.99,,,-99.99,,2013-07-28 10:22:00,
2013-07-28 05:33:00,58.0,49.0,-100.00,West,280,5.0,11.0,71,-99.99,,,-99.99,,2013-07-28 10:33:00,
2013-07-28 05:42:00,58.0,49.0,-100.00,WSW,250,4.0,11.0,73,-99.99,,,-99.99,,2013-07-28 10:42:00,
2013-07-28 05:53:00,58.0,49.0,-100.00,WSW,250,4.0,11.0,73,-99.99,,,-99.99,,2013-07-28 10:53:00,
2013-07-28 06:02:00,58.0,49.0,-100.00,WSW,250,4.0,11.0,73,-99.99,,,-99.99,,2013-07-28 11:02:00,
2013-07-28 06:12:00,58.0,49.0,-100.00,SW,225,1.0,10.0,74,-99.99,,,-99.99,,2013-07-28 11:12:00,
2013-07-28 06:22:00,58.0,49.0,-100.00,SW,225,1.0,10.0,74,-99.99,,,-99.99,,2013-07-28 11:22:00,
2013-07-28 06:33:00,57.0,50.0,-100.00,NW,325,1.0,9.0,76,-99.99,,,-99.99,,2013-07-28 11:33:00,
2013-07-28 06:43:00,56.0,50.0,-100.00,West,280,1.0,9.0,78,-99.99,,,-99.99,,2013-07-28 11:43:00,
2013-07-28 06:54:00,56.0,50.0,-100.00,West,280,1.0,9.0,78,-99.99,,,-99.99,,2013-07-28 11:54:00,
2013-07-28 07:12:00,56.0,50.0,-100.00,WSW,250,2.0,9.0,79,-99.99,,,-99.99,,2013-07-28 12:12:00,
2013-07-28 07:22:00,56.0,50.0,-100.00,WSW,250,2.0,9.0,79,-99.99,,,-99.99,,2013-07-28 12:22:00,
2013-07-28 07:43:00,56.0,50.0,-100.00,WSW,250,4.0,10.0,80,-99.99,,,-99.99,,2013-07-28 12:43:00,
2013-07-28 07:53:00,56.0,50.0,-100.00,WSW,250,4.0,10.0,80,-99.99,,,-99.99,,2013-07-28 12:53:00,
2013-07-28 08:12:00,58.0,50.0,-100.00,WNW,285,4.0,9.0,77,-99.99,,,-99.99,,2013-07-28 13:12:00,
2013-07-28 08:22:00,58.0,50.0,-100.00,WNW,285,4.0,9.0,77,-99.99,,,-99.99,,2013-07-28 13:22:00,
2013-07-28 08:43:00,59.0,51.0,-100.00,WNW,285,3.0,7.0,75,-99.99,,,-99.99,,2013-07-28 13:43:00,
2013-07-28 08:53:00,59.0,51.0,-100.00,WNW,285,3.0,7.0,75,-99.99,,,-99.99,,2013-07-28 13:53:00,
2013-07-28 09:23:00,61.0,50.0,-100.00,NW,305,6.0,9.0,67,-99.99,,,-99.99,,2013-07-28 14:23:00,
2013-07-28 09:53:00,62.0,51.0,-100.00,WNW,295,4.0,11.0,67,-99.99,,,-99.99,,2013-07-28 14:53:00,
2013-07-28 10:13:00,64.0,50.0,-100.00,NW,325,4.0,9.0,62,-99.99,,,-99.99,,2013-07-28 15:13:00,
2013-07-28 10:22:00,64.0,50.0,-100.00,NW,325,4.0,9.0,62,-99.99,,,-99.99,,2013-07-28 15:22:00,
2013-07-28 10:53:00,65.0,49.0,-100.00,NNW,330,4.0,13.0,58,-99.99,,,-99.99,,2013-07-28 15:53:00,
2013-07-28 11:12:00,66.0,51.0,-100.00,NNW,335,5.0,11.0,58,-99.99,,,-99.99,,2013-07-28 16:12:00,
2013-07-28 11:22:00,66.0,51.0,-100.00,NNW,335,5.0,11.0,58,-99.99,,,-99.99,,2013-07-28 16:22:00,
2013-07-28 11:33:00,66.0,51.0,-100.00,West,265,5.0,11.0,57,-99.99,,,-99.99,,2013-07-28 16:33:00,
2013-07-28 11:43:00,66.0,51.0,-100.00,SW,225,3.0,13.0,57,-99.99,,,-99.99,,2013-07-28 16:43:00,
2013-07-28 11:52:00,66.0,51.0,-100.00,SW,225,3.0,13.0,57,-99.99,,,-99.99,,2013-07-28 16:52:00,
2013-07-28 12:13:00,67.0,51.0,-100.00,WNW,285,6.0,11.0,57,-99.99,,,-99.99,,2013-07-28 17:13:00,
2013-07-28 12:23:00,67.0,51.0,-100.00,WNW,285,6.0,11.0,57,-99.99,,,-99.99,,2013-07-28 17:23:00,
2013-07-28 12:32:00,67.0,52.0,-100.00,WNW,300,3.0,14.0,57,-99.99,,,-99.99,,2013-07-28 17:32:00,
2013-07-28 12:53:00,67.0,51.0,-100.00,WNW,290,4.0,15.0,55,-99.99,,,-99.99,,2013-07-28 17:53:00,
2013-07-28 13:12:00,69.0,51.0,-100.00,WNW,285,4.0,11.0,53,-99.99,,,-99.99,,2013-07-28 18:12:00,
2013-07-28 13:22:00,69.0,51.0,-100.00,WNW,285,4.0,11.0,53,-99.99,,,-99.99,,2013-07-28 18:22:00,
2013-07-28 13:43:00,69.0,52.0,-100.00,West,270,5.0,11.0,54,-99.99,,,-99.99,,2013-07-28 18:43:00,
2013-07-28 13:52:00,69.0,52.0,-100.00,West,270,5.0,11.0,54,-99.99,,,-99.99,,2013-07-28 18:52:00,
2013-07-28 14:12:00,70.0,51.0,-100.00,West,270,4.0,9.0,52,-99.99,,,-99.99,,2013-07-28 19:12:00,
2013-07-28 14:22:00,70.0,51.0,-100.00,West,270,4.0,9.0,52,-99.99,,,-99.99,,2013-07-28 19:22:00,
2013-07-28 14:53:00,71.0,53.0,-100.00,NE,40,1.0,7.0,52,-99.99,,,-99.99,,2013-07-28 19:53:00,
2013-07-28 15:12:00,70.0,50.0,-100.00,SW,220,2.0,9.0,50,-99.99,,,-99.99,,2013-07-28 20:12:00,
2013-07-28 15:23:00,70.0,50.0,-100.00,SW,220,2.0,9.0,50,-99.99,,,-99.99,,2013-07-28 20:23:00,
2013-07-28 15:33:00,71.0,54.0,-100.00,NNE,20,2.0,9.0,54,-99.99,,,-99.99,,2013-07-28 20:33:00,
2013-07-28 15:43:00,69.0,52.0,-100.00,NW,305,1.0,9.0,54,-99.99,,,-99.99,,2013-07-28 20:43:00,
2013-07-28 15:53:00,69.0,52.0,-100.00,NW,305,1.0,9.0,54,-99.99,,,-99.99,,2013-07-28 20:53:00,
2013-07-28 16:13:00,69.0,52.0,-100.00,SW,230,2.0,14.0,53,-99.99,,,-99.99,,2013-07-28 21:13:00,
2013-07-28 16:22:00,69.0,52.0,-100.00,SW,230,2.0,14.0,53,-99.99,,,-99.99,,2013-07-28 21:22:00,
2013-07-28 16:52:00,72.0,51.0,-100.00,South,170,1.0,9.0,49,-99.99,,,-99.99,,2013-07-28 21:52:00,
2013-07-28 17:12:00,70.0,52.0,-100.00,West,265,1.0,7.0,53,-99.99,,,-99.99,,2013-07-28 22:12:00,
2013-07-28 17:22:00,70.0,52.0,-100.00,West,265,1.0,7.0,53,-99.99,,,-99.99,,2013-07-28 22:22:00,
2013-07-28 17:32:00,69.0,52.0,-100.00,SW,220,3.0,11.0,54,-99.99,,,-99.99,,2013-07-28 22:32:00,
2013-07-28 17:43:00,69.0,52.0,-100.00,WSW,245,3.0,8.0,54,-99.99,,,-99.99,,2013-07-28 22:43:00,
2013-07-28 17:52:00,69.0,52.0,-100.00,WSW,245,3.0,8.0,54,-99.99,,,-99.99,,2013-07-28 22:52:00,
2013-07-28 18:12:00,70.0,52.0,-100.00,West,265,2.0,10.0,54,-99.99,,,-99.99,,2013-07-28 23:12:00,
2013-07-28 18:22:00,70.0,52.0,-100.00,West,265,2.0,10.0,54,-99.99,,,-99.99,,2013-07-28 23:22:00,
2013-07-28 18:32:00,69.0,53.0,-100.00,NW,315,4.0,9.0,55,-99.99,,,-99.99,,2013-07-28 23:32:00,
2013-07-28 18:43:00,71.0,51.0,-100.00,WSW,245,4.0,9.0,49,-99.99,,,-99.99,,2013-07-28 23:43:00,
2013-07-28 18:53:00,71.0,51.0,-100.00,WSW,245,4.0,9.0,49,-99.99,,,-99.99,,2013-07-28 23:53:00,
2013-07-28 19:03:00,71.0,52.0,-100.00,West,265,3.0,8.0,51,-99.99,,,-99.99,,2013-07-29 00:03:00,
2013-07-28 19:22:00,70.0,52.0,-100.00,NW,325,2.0,9.0,54,-99.99,,,-99.99,,2013-07-29 00:22:00,
2013-07-28 19:52:00,68.0,53.0,-100.00,West,265,1.0,5.0,57,-99.99,,,-99.99,,2013-07-29 00:52:00,
2013-07-28 20:14:00,67.0,52.0,-100.00,WNW,295,4.0,5.0,59,-99.99,,,-99.99,,2013-07-29 01:14:00,
2013-07-28 20:28:00,67.0,52.0,-100.00,WNW,295,4.0,5.0,59,-99.99,,,-99.99,,2013-07-29 01:28:00,
2013-07-28 20:35:00,67.0,52.0,-100.00,West,280,0.0,5.0,58,-99.99,,,-99.99,,2013-07-29 01:35:00,
2013-07-28 21:01:00,65.0,53.0,-100.00,West,280,1.0,4.0,63,-99.99,,,-99.99,,2013-07-29 02:01:00,
2013-07-28 21:14:00,63.0,54.0,-100.00,West,265,0.0,1.0,73,-99.99,,,-99.99,,2013-07-29 02:14:00,
2013-07-28 21:25:00,63.0,54.0,-100.00,West,265,0.0,1.0,73,-99.99,,,-99.99,,2013-07-29 02:25:00,
2013-07-28 21:36:00,62.0,54.0,-100.00,NNW,330,1.0,3.0,75,-99.99,,,-99.99,,2013-07-29 02:36:00,
2013-07-28 21:46:00,62.0,54.0,-100.00,NW,320,0.0,2.0,74,-99.99,,,-99.99,,2013-07-29 02:46:00,
2013-07-28 21:58:00,62.0,54.0,-100.00,NW,320,0.0,2.0,74,-99.99,,,-99.99,,2013-07-29 02:58:00,
2013-07-28 22:17:00,60.0,56.0,-100.00,NW,310,0.0,1.0,84,-99.99,,,-99.99,,2013-07-29 03:17:00,
2013-07-28 22:24:00,60.0,56.0,-100.00,NW,310,0.0,1.0,84,-99.99,,,-99.99,,2013-07-29 03:24:00,
2013-07-28 22:48:00,59.0,56.0,-100.00,WNW,295,0.0,1.0,88,-99.99,,,-99.99,,2013-07-29 03:48:00,
2013-07-28 22:58:00,59.0,56.0,-100.00,WNW,295,0.0,1.0,88,-99.99,,,-99.99,,2013-07-29 03:58:00,
2013-07-28 23:12:00,58.0,55.0,-100.00,ESE,120,1.0,3.0,90,-99.99,,,-99.99,,2013-07-29 04:12:00,
2013-07-28 23:22:00,58.0,55.0,-100.00,ESE,120,1.0,3.0,90,-99.99,,,-99.99,,2013-07-29 04:22:00,
2013-07-28 23:53:00,57.0,55.0,-100.00,SE,125,1.0,1.0,94,-99.99,,,-99.99,,2013-07-29 04:53:00,